Time;durP1;ratioP1;P1;durP2;ratioP2;P2;SDS_P1;SDS_P2;PMS_P1;PMS_P2;Temp;Humidity;BMP_temperature;BMP_pressure;BME280_temperature;BME280_humidity;BME280_pressure;Samples;Min_cycle;Max_cycle;Signal;HPM_P1;HPM_P2
2023/10/14 00:01:51;;;;;;;11.93;4.90;;;19.50;65.60;;;;;;5073982;28;20058;-85
2023/10/14 00:04:21;;;;;;;12.40;4.87;;;19.40;65.60;;;;;;5073885;28;20457;-85
2023/10/14 00:06:49;;;;;;;13.13;4.53;;;19.30;65.90;;;;;;5073737;28;20043;-85
2023/10/14 00:09:16;;;;;;;10.75;4.75;;;19.30;66.20;;;;;;5071374;28;20040;-85
2023/10/14 00:11:44;;;;;;;14.13;4.85;;;19.20;66.30;;;;;;5073094;28;20047;-85
2023/10/14 00:14:15;;;;;;;12.88;4.80;;;19.10;66.40;;;;;;5087736;28;20048;-85
2023/10/14 00:16:50;;;;;;;10.93;4.87;;;19.10;66.10;;;;;;5073515;28;20044;-85
2023/10/14 00:19:19;;;;;;;13.43;5.03;;;19.10;65.90;;;;;;5072799;28;20050;-85
2023/10/14 00:21:50;;;;;;;14.57;4.07;;;19.10;65.60;;;;;;5080530;28;20052;-85
2023/10/14 00:24:28;;;;;;;10.05;4.20;;;19.20;65.60;;;;;;5090501;28;20459;-85
2023/10/14 00:27:03;;;;;;;12.25;4.47;;;19.10;64.90;;;;;;5090736;28;20040;-85
2023/10/14 00:29:31;;;;;;;12.43;5.17;;;19.10;65.50;;;;;;5077516;28;20567;-85
2023/10/14 00:32:03;;;;;;;12.18;5.05;;;19.10;65.30;;;;;;5094087;28;20050;-86
2023/10/14 00:34:30;;;;;;;12.05;4.72;;;19.10;65.20;;;;;;5093900;28;20429;-85
2023/10/14 00:36:57;;;;;;;11.60;4.20;;;19.10;65.10;;;;;;5093988;28;20036;-86
2023/10/14 00:39:27;;;;;;;10.52;4.30;;;19.10;65.00;;;;;;5093822;28;20059;-85
2023/10/14 00:41:55;;;;;;;11.87;5.20;;;19.00;64.70;;;;;;5094889;28;20044;-85
2023/10/14 00:44:26;;;;;;;13.15;4.82;;;19.10;64.40;;;;;;5092257;28;20117;-84
2023/10/14 00:46:55;;;;;;;12.40;4.82;;;19.10;64.10;;;;;;5093533;28;20059;-84
2023/10/14 00:49:42;;;;;;;11.23;4.45;;;19.10;63.80;;;;;;5075538;28;20036;-85
2023/10/14 00:52:18;;;;;;;13.88;4.82;;;19.10;64.10;;;;;;5092078;28;20438;-85
2023/10/14 00:59:50;;;;;;;11.77;4.80;;;19.10;64.10;;;;;;5092971;28;20048;-85
2023/10/14 01:02:30;;;;;;;14.77;4.68;;;19.10;64.70;;;;;;5093313;28;20772;-85
2023/10/14 01:05:06;;;;;;;11.23;4.88;;;19.00;64.90;;;;;;5107106;28;20493;-85
2023/10/14 01:07:33;;;;;;;12.37;5.13;;;19.00;65.30;;;;;;5093702;28;20051;-85
2023/10/14 01:10:01;;;;;;;12.25;4.70;;;18.90;65.50;;;;;;5093227;28;20494;-85
2023/10/14 01:12:39;;;;;;;12.75;4.53;;;18.90;65.90;;;;;;5077069;28;20071;-84
2023/10/14 01:15:17;;;;;;;12.50;5.20;;;18.80;65.90;;;;;;5075692;28;20040;-85
2023/10/14 01:17:45;;;;;;;12.38;4.95;;;18.80;66.10;;;;;;5075026;28;20037;-85
2023/10/14 01:22:44;;;;;;;11.75;5.13;;;18.80;66.30;;;;;;5092741;28;20101;-84
2023/10/14 01:25:15;;;;;;;12.52;4.63;;;18.70;66.30;;;;;;5092079;28;20105;-85
2023/10/14 01:27:45;;;;;;;13.48;5.43;;;18.70;66.60;;;;;;5093887;28;20573;-87
2023/10/14 01:30:25;;;;;;;14.45;5.45;;;18.70;66.40;;;;;;5091258;28;20084;-85
2023/10/14 01:32:57;;;;;;;14.37;5.43;;;18.70;66.60;;;;;;5076023;28;20048;-85
2023/10/14 01:35:26;;;;;;;15.63;5.25;;;18.70;66.90;;;;;;5081699;28;20044;-85
2023/10/14 01:37:54;;;;;;;15.10;5.57;;;18.70;66.80;;;;;;5091427;28;20040;-85
2023/10/14 01:42:58;;;;;;;11.55;5.20;;;18.60;67.10;;;;;;5092787;28;20036;-84
2023/10/14 01:45:39;;;;;;;17.93;6.10;;;18.60;67.40;;;;;;5092187;28;20085;-86
2023/10/14 01:50:46;;;;;;;13.70;6.45;;;18.50;67.70;;;;;;5090451;28;20105;-85
2023/10/14 01:53:32;;;;;;;14.95;5.68;;;18.50;67.90;;;;;;5092229;28;20133;-84
2023/10/14 01:56:01;;;;;;;11.57;5.93;;;18.50;68.20;;;;;;5091405;28;20557;-86
2023/10/14 01:58:32;;;;;;;12.77;5.87;;;18.50;68.40;;;;;;5092360;28;20032;-85
2023/10/14 02:03:49;;;;;;;14.57;6.25;;;18.50;68.90;;;;;;5087489;28;20048;-85
2023/10/14 02:06:26;;;;;;;12.43;6.43;;;18.40;69.20;;;;;;5090118;28;20063;-85
2023/10/14 02:08:57;;;;;;;16.20;6.78;;;18.40;69.30;;;;;;5092091;28;20062;-86
2023/10/14 02:11:26;;;;;;;18.00;7.13;;;18.50;69.50;;;;;;5091941;28;20078;-85
2023/10/14 02:13:53;;;;;;;18.38;7.57;;;18.50;69.80;;;;;;5075243;28;20560;-85
2023/10/14 02:16:40;;;;;;;15.25;7.13;;;18.40;69.90;;;;;;5075176;28;20040;-86
2023/10/14 02:19:36;;;;;;;18.00;7.82;;;18.40;70.00;;;;;;5089010;28;20118;-85
2023/10/14 02:22:09;;;;;;;16.92;7.35;;;18.40;70.10;;;;;;5075150;28;20055;-85
2023/10/14 02:24:37;;;;;;;16.63;7.17;;;18.50;70.00;;;;;;5089153;28;20039;-84
2023/10/14 02:27:11;;;;;;;15.13;7.00;;;18.50;70.20;;;;;;5074065;28;20127;-85
2023/10/14 02:29:44;;;;;;;17.42;7.95;;;18.50;70.00;;;;;;5091913;28;20397;-85
2023/10/14 02:32:12;;;;;;;14.32;6.72;;;18.50;69.90;;;;;;5092030;28;20050;-85
2023/10/14 02:34:40;;;;;;;16.88;7.50;;;18.50;69.80;;;;;;5075017;28;20054;-85
2023/10/14 02:37:10;;;;;;;14.83;7.83;;;18.60;69.70;;;;;;5074162;28;20048;-85
2023/10/14 02:39:37;;;;;;;15.77;7.57;;;18.60;69.60;;;;;;5072420;28;20086;-85
2023/10/14 02:44:43;;;;;;;17.77;8.20;;;18.60;69.60;;;;;;5090969;28;20051;-85
2023/10/14 02:47:11;;;;;;;21.08;8.27;;;18.60;69.90;;;;;;5091069;28;20055;-85
2023/10/14 02:49:42;;;;;;;16.43;7.93;;;18.50;70.00;;;;;;5073255;28;20047;-85
2023/10/14 02:52:11;;;;;;;14.85;7.20;;;18.50;69.80;;;;;;5090376;28;20058;-85
2023/10/14 02:54:54;;;;;;;18.27;8.27;;;18.50;70.00;;;;;;5072799;28;20413;-85
2023/10/14 02:59:49;;;;;;;19.20;8.20;;;18.50;70.40;;;;;;5091176;28;20409;-85
2023/10/14 03:02:39;;;;;;;16.13;7.53;;;18.40;70.30;;;;;;5091443;28;20036;-85
2023/10/14 03:05:32;;;;;;;14.25;7.78;;;18.50;70.20;;;;;;5092061;28;20044;-84
2023/10/14 03:08:09;;;;;;;15.82;8.27;;;18.50;70.10;;;;;;5091233;28;20044;-85
2023/10/14 03:10:39;;;;;;;22.83;9.13;;;18.50;70.40;;;;;;5088708;28;20044;-85
2023/10/14 03:13:11;;;;;;;15.02;8.15;;;18.50;70.50;;;;;;5091053;28;20040;-84
2023/10/14 03:15:44;;;;;;;19.40;8.10;;;18.40;70.50;;;;;;5087893;28;20131;-84
2023/10/14 03:18:15;;;;;;;17.25;8.27;;;18.50;70.60;;;;;;5073689;28;20040;-85
2023/10/14 03:23:19;;;;;;;17.25;8.10;;;18.40;70.60;;;;;;5090673;28;20050;-85
2023/10/14 03:25:49;;;;;;;17.98;8.30;;;18.40;70.40;;;;;;5074333;28;20512;-84
2023/10/14 03:28:19;;;;;;;18.93;8.57;;;18.50;70.60;;;;;;5090714;28;20071;-84
2023/10/14 03:30:58;;;;;;;15.63;7.72;;;18.50;70.80;;;;;;5074117;28;20136;-85
2023/10/14 03:33:32;;;;;;;18.15;8.68;;;18.40;70.80;;;;;;5066961;28;20047;-85
2023/10/14 03:41:52;;;;;;;17.83;8.80;;;18.50;71.10;;;;;;5089666;28;20044;-85
2023/10/14 03:46:42;;;;;;;19.58;9.25;;;18.40;71.10;;;;;;5089379;28;20043;-85
2023/10/14 03:49:12;;;;;;;18.60;9.45;;;18.40;71.20;;;;;;5072809;28;20047;-84
2023/10/14 03:51:40;;;;;;;17.95;8.57;;;18.30;71.30;;;;;;5074019;28;20043;-85
2023/10/14 03:54:12;;;;;;;17.77;8.83;;;18.30;71.40;;;;;;5074073;28;20516;-84
2023/10/14 03:56:45;;;;;;;18.80;8.55;;;18.30;71.40;;;;;;5090637;28;20040;-86
2023/10/14 03:59:24;;;;;;;19.02;9.40;;;18.30;71.20;;;;;;5090503;28;20040;-84
2023/10/14 04:02:05;;;;;;;19.35;8.68;;;18.40;71.10;;;;;;5072633;28;20036;-85
2023/10/14 04:04:33;;;;;;;17.58;8.13;;;18.40;71.00;;;;;;5077991;28;20059;-85
2023/10/14 04:12:32;;;;;;;17.45;8.40;;;18.40;70.60;;;;;;5085667;28;20649;-85
2023/10/14 04:17:40;;;;;;;18.70;8.43;;;18.40;70.90;;;;;;5093583;28;20122;-85
2023/10/14 04:22:39;;;;;;;16.88;8.43;;;18.40;70.70;;;;;;5093319;28;20040;-85
2023/10/14 04:30:24;;;;;;;18.98;9.38;;;18.40;70.90;;;;;;5093768;28;20052;-86
2023/10/14 04:35:23;;;;;;;22.17;9.40;;;18.40;70.70;;;;;;5091318;28;20086;-85
2023/10/14 04:37:54;;;;;;;19.42;9.38;;;18.40;70.50;;;;;;5076786;28;20131;-85
2023/10/14 04:45:52;;;;;;;16.33;8.07;;;18.40;70.00;;;;;;5090457;28;20075;-86
2023/10/14 04:48:39;;;;;;;17.58;8.90;;;18.50;69.90;;;;;;5076155;28;20054;-85
2023/10/14 04:51:09;;;;;;;16.30;8.60;;;18.40;69.50;;;;;;5095146;28;20044;-85
2023/10/14 04:53:36;;;;;;;16.67;8.60;;;18.50;69.40;;;;;;5092767;28;20124;-85
2023/10/14 04:56:08;;;;;;;18.60;9.10;;;18.50;69.40;;;;;;5093663;28;20047;-86
2023/10/14 04:58:40;;;;;;;19.47;8.20;;;18.60;69.50;;;;;;5075823;28;20048;-84
2023/10/14 05:01:17;;;;;;;15.45;8.35;;;18.50;69.30;;;;;;5086538;28;20513;-86
2023/10/14 05:03:46;;;;;;;15.35;8.27;;;18.60;68.80;;;;;;5076934;28;20047;-86
2023/10/14 05:06:16;;;;;;;17.08;8.07;;;18.60;68.30;;;;;;5076788;28;20046;-86
2023/10/14 05:08:51;;;;;;;17.67;8.25;;;18.60;67.40;;;;;;5091808;28;20044;-85
2023/10/14 05:11:19;;;;;;;18.63;9.00;;;18.60;68.30;;;;;;5091988;28;20069;-86
2023/10/14 05:13:53;;;;;;;15.73;8.25;;;18.60;68.70;;;;;;5077042;28;20047;-84
2023/10/14 05:16:21;;;;;;;18.08;8.52;;;18.60;68.90;;;;;;5076792;28;20551;-85
2023/10/14 05:18:59;;;;;;;18.08;8.80;;;18.50;69.10;;;;;;5076635;28;20050;-85
2023/10/14 05:21:42;;;;;;;18.92;8.55;;;18.50;69.00;;;;;;5092732;28;20040;-87
2023/10/14 05:24:12;;;;;;;18.10;9.47;;;18.50;70.00;;;;;;5075036;28;20040;-85
2023/10/14 05:26:46;;;;;;;16.63;9.13;;;18.40;70.30;;;;;;5074742;28;20486;-85
2023/10/14 05:29:18;;;;;;;21.92;9.23;;;18.30;70.40;;;;;;5105126;28;20062;-85
2023/10/14 05:31:50;;;;;;;18.80;8.82;;;18.30;70.70;;;;;;5082644;28;20437;-85
2023/10/14 05:34:21;;;;;;;21.95;9.13;;;18.30;70.20;;;;;;5074400;28;20044;-85
2023/10/14 05:36:52;;;;;;;15.90;8.30;;;18.30;70.60;;;;;;5081828;28;20094;-85
2023/10/14 05:39:20;;;;;;;16.55;9.20;;;18.20;70.60;;;;;;5085119;28;20534;-85
2023/10/14 05:41:48;;;;;;;17.95;8.70;;;18.20;71.10;;;;;;5092974;28;20042;-85
2023/10/14 05:44:18;;;;;;;18.10;9.52;;;18.20;70.70;;;;;;5074472;28;20071;-85
2023/10/14 05:46:45;;;;;;;18.35;8.93;;;18.20;70.50;;;;;;5108027;28;20098;-85
2023/10/14 05:49:12;;;;;;;20.60;9.80;;;18.30;70.70;;;;;;5092530;28;20457;-85
2023/10/14 05:51:39;;;;;;;18.92;9.05;;;18.20;70.90;;;;;;5075647;28;20051;-85
2023/10/14 05:54:08;;;;;;;17.73;8.95;;;18.20;71.00;;;;;;5075881;28;20040;-85
2023/10/14 05:56:35;;;;;;;18.65;9.85;;;18.20;70.30;;;;;;5091338;28;20408;-85
2023/10/14 05:59:02;;;;;;;19.77;9.48;;;18.20;70.60;;;;;;5076053;28;20032;-86
2023/10/14 06:01:29;;;;;;;17.67;9.33;;;18.30;69.50;;;;;;5092612;28;20036;-84
2023/10/14 06:03:57;;;;;;;17.52;9.73;;;18.40;70.00;;;;;;5074399;28;20386;-84
2023/10/14 06:06:24;;;;;;;18.90;8.52;;;18.40;70.20;;;;;;5092470;28;20127;-84
2023/10/14 06:08:53;;;;;;;18.50;9.63;;;18.30;70.40;;;;;;5092237;28;20494;-84
2023/10/14 06:11:20;;;;;;;17.40;8.90;;;18.30;70.40;;;;;;5075561;28;20044;-84
2023/10/14 06:13:47;;;;;;;20.67;9.67;;;18.40;70.20;;;;;;5081760;28;20036;-86
2023/10/14 06:16:14;;;;;;;19.60;9.57;;;18.40;70.60;;;;;;5075715;28;20131;-85
2023/10/14 06:18:44;;;;;;;18.50;10.63;;;18.40;70.50;;;;;;5083309;28;20050;-86
2023/10/14 06:21:11;;;;;;;17.73;9.73;;;18.40;70.70;;;;;;5092070;28;21785;-85
2023/10/14 06:23:47;;;;;;;20.13;9.73;;;18.50;70.90;;;;;;5090525;28;20447;-85
2023/10/14 06:26:17;;;;;;;19.93;8.73;;;18.50;70.20;;;;;;5089852;28;20044;-84
2023/10/14 06:28:45;;;;;;;18.85;9.95;;;18.60;69.90;;;;;;5073801;28;20056;-84
2023/10/14 06:31:12;;;;;;;19.10;9.60;;;18.60;69.80;;;;;;5091870;28;20101;-85
2023/10/14 06:33:40;;;;;;;19.20;9.88;;;18.80;68.90;;;;;;5075121;28;20113;-84
2023/10/14 06:36:10;;;;;;;20.77;10.57;;;18.90;68.60;;;;;;5092147;28;20081;-84
2023/10/14 06:38:44;;;;;;;18.67;10.10;;;18.90;69.00;;;;;;5074953;28;20405;-84
2023/10/14 06:41:12;;;;;;;17.38;9.93;;;19.00;68.70;;;;;;5091991;28;20070;-83
2023/10/14 06:43:39;;;;;;;20.50;10.50;;;19.10;68.60;;;;;;5074843;28;20066;-84
2023/10/14 06:46:06;;;;;;;21.20;10.82;;;19.10;68.40;;;;;;5092256;28;20074;-87
2023/10/14 06:48:33;;;;;;;25.15;10.48;;;19.10;67.70;;;;;;5072670;28;20040;-88
2023/10/14 06:51:01;;;;;;;21.10;10.30;;;19.20;68.00;;;;;;5104904;28;20091;-88
2023/10/14 06:53:28;;;;;;;25.33;10.75;;;19.40;67.60;;;;;;5076081;28;20036;-89
2023/10/14 06:55:58;;;;;;;23.85;11.00;;;19.40;67.70;;;;;;5092787;28;20512;-88
2023/10/14 06:58:28;;;;;;;26.98;10.65;;;19.40;68.10;;;;;;5076037;28;20109;-89
2023/10/14 07:00:57;;;;;;;21.17;11.27;;;19.40;67.80;;;;;;5074817;28;20044;-86
2023/10/14 07:03:24;;;;;;;25.20;10.93;;;19.50;67.70;;;;;;5074819;28;20043;-86
2023/10/14 07:08:23;;;;;;;22.73;10.32;;;19.60;67.20;;;;;;5091772;28;20044;-86
2023/10/14 07:10:51;;;;;;;17.98;9.75;;;19.60;66.60;;;;;;5091842;28;20043;-86
2023/10/14 07:13:21;;;;;;;26.67;10.85;;;19.70;66.50;;;;;;5074878;28;20048;-87
2023/10/14 07:15:50;;;;;;;20.80;10.50;;;19.80;67.10;;;;;;5074071;28;20059;-87
2023/10/14 07:18:22;;;;;;;23.75;9.63;;;19.80;67.20;;;;;;5091722;28;20093;-86
2023/10/14 07:21:00;;;;;;;16.60;8.95;;;19.80;67.10;;;;;;5091932;28;20036;-86
2023/10/14 07:23:36;;;;;;;16.77;8.13;;;19.80;67.00;;;;;;5089758;28;20040;-86
2023/10/14 07:26:11;;;;;;;25.63;9.40;;;19.80;66.40;;;;;;5090197;28;20036;-86
2023/10/14 07:28:42;;;;;;;18.47;9.80;;;20.00;66.50;;;;;;5074584;28;20424;-86
2023/10/14 07:31:11;;;;;;;16.48;9.02;;;20.00;66.80;;;;;;5086658;28;20051;-86
2023/10/14 07:33:40;;;;;;;19.27;9.32;;;20.10;65.90;;;;;;5090862;28;20123;-88
2023/10/14 07:36:07;;;;;;;18.92;9.50;;;20.20;66.40;;;;;;5075553;28;20528;-88
2023/10/14 07:38:35;;;;;;;16.25;8.45;;;20.30;65.90;;;;;;5081597;28;20039;-89
2023/10/14 07:41:03;;;;;;;19.10;7.80;;;20.20;65.60;;;;;;5075953;28;20063;-88
2023/10/14 07:43:33;;;;;;;19.10;8.90;;;20.20;65.10;;;;;;5075972;28;20060;-88
2023/10/14 07:46:02;;;;;;;20.63;9.52;;;20.30;65.30;;;;;;5075743;28;20516;-88
2023/10/14 07:48:30;;;;;;;19.83;9.23;;;20.30;65.90;;;;;;5075746;28;20048;-88
2023/10/14 07:50:58;;;;;;;21.60;9.60;;;20.30;64.60;;;;;;5092207;28;20040;-88
2023/10/14 07:53:29;;;;;;;17.67;9.90;;;20.50;65.00;;;;;;5092439;28;20044;-88
2023/10/14 07:55:56;;;;;;;20.98;10.15;;;20.50;65.30;;;;;;5075906;28;20040;-89
2023/10/14 07:58:27;;;;;;;19.63;9.75;;;20.50;65.90;;;;;;5075489;28;20557;-88
2023/10/14 08:00:55;;;;;;;19.25;9.10;;;20.40;65.10;;;;;;5075496;28;20442;-87
2023/10/14 08:03:24;;;;;;;18.65;9.57;;;20.50;65.20;;;;;;5076068;28;20051;-89
2023/10/14 08:06:00;;;;;;;18.03;9.50;;;20.50;65.00;;;;;;5076061;28;20048;-88
2023/10/14 08:08:32;;;;;;;18.05;8.98;;;20.50;64.60;;;;;;5094604;28;20131;-91
2023/10/14 08:11:00;;;;;;;18.77;9.38;;;20.60;64.40;;;;;;5093157;28;20048;-91
2023/10/14 08:13:30;;;;;;;16.17;9.05;;;20.50;64.40;;;;;;5076213;28;20052;-88
2023/10/14 08:15:59;;;;;;;19.48;8.65;;;20.60;64.50;;;;;;5087314;28;20106;-90
2023/10/14 08:18:26;;;;;;;17.93;8.67;;;20.60;65.60;;;;;;5092100;28;20048;-90
2023/10/14 08:20:55;;;;;;;16.85;8.70;;;20.70;64.80;;;;;;5075593;28;20054;-88
2023/10/14 08:23:22;;;;;;;17.08;9.02;;;20.70;65.90;;;;;;5075292;28;20047;-90
2023/10/14 08:25:57;;;;;;;19.33;9.68;;;20.70;65.30;;;;;;5075678;28;20545;-91
2023/10/14 08:28:24;;;;;;;16.60;9.35;;;20.60;65.40;;;;;;5091741;28;20047;-88
2023/10/14 08:30:51;;;;;;;18.97;9.13;;;20.60;65.80;;;;;;5092515;28;20497;-94
2023/10/14 08:33:20;;;;;;;22.08;9.52;;;20.70;65.60;;;;;;5093448;28;20048;-93
2023/10/14 08:35:50;;;;;;;17.63;9.60;;;20.70;64.40;;;;;;5076234;28;20032;-92
2023/10/14 08:38:21;;;;;;;20.45;9.30;;;20.70;65.40;;;;;;5092850;28;20040;-93
2023/10/14 08:40:53;;;;;;;17.65;8.98;;;20.80;65.80;;;;;;5090138;28;20498;-92
2023/10/14 08:43:26;;;;;;;18.17;8.77;;;20.80;65.20;;;;;;5075694;28;20047;-92
2023/10/14 08:45:54;;;;;;;20.70;10.02;;;20.80;64.80;;;;;;5087250;28;20036;-91
2023/10/14 08:48:26;;;;;;;19.52;9.23;;;20.90;64.80;;;;;;5075079;28;20044;-90
2023/10/14 08:50:56;;;;;;;17.38;8.65;;;20.90;65.20;;;;;;5112046;28;20148;-91
2023/10/14 08:53:25;;;;;;;16.33;8.57;;;20.90;65.10;;;;;;5078686;28;20100;-92
2023/10/14 08:55:53;;;;;;;19.13;8.77;;;21.00;65.60;;;;;;5093646;28;20048;-91
2023/10/14 08:58:22;;;;;;;15.73;8.55;;;21.10;64.40;;;;;;5093808;28;20048;-91
2023/10/14 09:00:54;;;;;;;20.55;9.18;;;21.10;64.40;;;;;;5079534;28;20044;-92
2023/10/14 09:03:24;;;;;;;15.52;8.23;;;21.10;64.00;;;;;;5096100;28;20051;-92
2023/10/14 09:05:52;;;;;;;16.85;8.27;;;21.10;64.00;;;;;;5079108;28;20044;-91
2023/10/14 09:08:20;;;;;;;18.37;8.70;;;21.20;63.90;;;;;;5096449;28;20044;-95
2023/10/14 09:10:54;;;;;;;16.17;7.97;;;21.20;63.60;;;;;;5328803;22;20056;-96
2023/10/14 09:25:44;;;;;;;17.63;8.50;;;21.40;64.30;;;;;;5886245;23;20070;31
2023/10/14 09:28:12;;;;;;;16.00;8.13;;;21.30;63.60;;;;;;4772155;30;20052;-95
2023/10/14 09:30:44;;;;;;;18.52;8.60;;;21.30;64.20;;;;;;4772663;30;20068;-95
2023/10/14 09:33:22;;;;;;;21.00;8.75;;;21.40;64.50;;;;;;4772813;30;20051;-95
2023/10/14 09:35:50;;;;;;;18.25;9.18;;;21.40;64.70;;;;;;4754731;30;20471;-94
2023/10/14 09:38:22;;;;;;;16.20;9.50;;;21.50;63.90;;;;;;4770883;30;20410;-93
2023/10/14 09:40:54;;;;;;;17.75;8.85;;;21.60;64.50;;;;;;4757544;30;20056;-93
2023/10/14 09:43:24;;;;;;;17.15;9.93;;;21.60;63.70;;;;;;4757587;30;20133;-93
2023/10/14 09:45:55;;;;;;;19.95;9.73;;;21.60;62.90;;;;;;4758287;30;20403;-93
2023/10/14 09:48:26;;;;;;;19.63;10.02;;;21.50;64.00;;;;;;4772318;30;20056;-92
2023/10/14 09:50:57;;;;;;;21.00;9.17;;;21.60;63.50;;;;;;4772368;30;20084;-93
2023/10/14 09:53:26;;;;;;;17.10;8.57;;;21.60;64.30;;;;;;4757539;30;20044;-93
2023/10/14 09:56:04;;;;;;;17.73;8.45;;;21.70;63.80;;;;;;4772240;30;20466;-94
2023/10/14 09:58:46;;;;;;;14.48;8.70;;;21.70;63.60;;;;;;4757650;30;20529;-93
2023/10/14 10:01:15;;;;;;;16.77;8.65;;;21.80;63.30;;;;;;4757127;30;20054;-93
2023/10/14 10:04:03;;;;;;;16.27;8.90;;;21.80;64.10;;;;;;4757414;30;20047;-94
2023/10/14 10:06:47;;;;;;;16.27;8.27;;;21.80;63.40;;;;;;4772083;30;20105;-96
2023/10/14 10:09:35;;;;;;;18.92;8.93;;;21.90;63.80;;;;;;4772154;30;20065;-96
2023/10/14 10:12:08;;;;;;;17.63;8.88;;;22.10;63.40;;;;;;4771983;30;20060;-95
2023/10/14 10:14:48;;;;;;;15.20;8.70;;;22.10;63.00;;;;;;4772691;30;20098;-95
2023/10/14 10:17:16;;;;;;;15.63;8.57;;;22.10;62.50;;;;;;4772029;30;20051;-94
2023/10/14 10:20:16;;;;;;;20.00;9.60;;;22.10;63.10;;;;;;4776762;30;20051;-93
2023/10/14 10:26:00;;;;;;;20.95;9.27;;;22.00;62.30;;;;;;5069647;24;20071;-94
2023/10/14 10:28:28;;;;;;;20.80;9.55;;;22.00;64.10;;;;;;4826735;29;20054;-92
2023/10/14 10:31:09;;;;;;;18.17;8.63;;;22.10;63.40;;;;;;4810154;29;20133;-89
2023/10/14 10:33:54;;;;;;;17.90;9.05;;;22.40;63.80;;;;;;4825153;29;20050;-89
2023/10/14 10:36:27;;;;;;;16.50;8.25;;;22.50;62.10;;;;;;4824827;29;20078;-89
2023/10/14 10:39:06;;;;;;;18.63;9.35;;;22.70;62.50;;;;;;4821557;29;20051;-90
2023/10/14 10:41:37;;;;;;;16.85;8.65;;;22.70;61.50;;;;;;4821332;29;20075;-91
2023/10/14 10:44:06;;;;;;;16.03;7.63;;;22.80;60.80;;;;;;4810552;29;20056;-92
2023/10/14 10:46:46;;;;;;;15.18;7.85;;;22.90;60.40;;;;;;4825502;29;20050;-92
2023/10/14 10:49:16;;;;;;;16.45;8.73;;;22.90;60.70;;;;;;4825320;29;20103;-92
2023/10/14 10:52:16;;;;;;;19.33;7.63;;;23.00;59.90;;;;;;4825900;29;20110;-92
2023/10/14 10:54:44;;;;;;;15.02;8.85;;;23.10;59.50;;;;;;4825262;29;20046;-90
2023/10/14 10:57:13;;;;;;;16.43;7.90;;;23.20;59.60;;;;;;4825071;29;20088;-91
2023/10/14 10:59:40;;;;;;;13.75;7.60;;;23.10;60.20;;;;;;4824691;29;20142;-90
2023/10/14 11:02:13;;;;;;;15.30;8.35;;;23.10;59.90;;;;;;4810038;29;20106;-90
2023/10/14 11:04:42;;;;;;;13.40;8.05;;;23.30;60.80;;;;;;4824528;29;20047;-90
2023/10/14 11:07:14;;;;;;;13.35;7.13;;;23.40;60.20;;;;;;4813997;29;20544;-91
2023/10/14 11:09:41;;;;;;;17.10;6.77;;;23.60;58.50;;;;;;4824936;29;20498;-91
2023/10/14 11:12:09;;;;;;;10.50;5.90;;;23.70;56.60;;;;;;4824368;29;20062;-92
2023/10/14 11:14:37;;;;;;;13.98;6.75;;;23.70;56.00;;;;;;4825072;29;20054;-92
2023/10/14 11:17:08;;;;;;;12.65;6.53;;;23.70;55.70;;;;;;4824935;29;20054;-90
2023/10/14 11:19:35;;;;;;;16.88;6.55;;;23.60;55.20;;;;;;4809815;29;20050;-92
2023/10/14 11:22:04;;;;;;;21.63;7.97;;;23.70;55.50;;;;;;4824687;29;20080;-89
2023/10/14 11:24:32;;;;;;;15.40;7.00;;;23.80;55.60;;;;;;4824404;29;20144;-91
2023/10/14 11:27:01;;;;;;;17.90;6.78;;;23.90;56.30;;;;;;4823331;29;20527;-89
2023/10/14 11:29:33;;;;;;;13.63;6.70;;;24.10;55.20;;;;;;4823464;29;20078;-88
2023/10/14 11:32:02;;;;;;;14.35;6.30;;;24.10;54.00;;;;;;4806011;29;20066;-88
2023/10/14 11:34:34;;;;;;;18.07;5.93;;;24.10;55.40;;;;;;4822119;29;20532;-88
2023/10/14 11:37:02;;;;;;;14.05;5.78;;;24.10;54.90;;;;;;4833593;29;20047;-88
2023/10/14 11:39:32;;;;;;;17.73;6.78;;;24.10;54.30;;;;;;4822572;29;20080;-88
2023/10/14 11:42:02;;;;;;;12.63;5.63;;;24.10;56.00;;;;;;4806016;29;20046;-88
2023/10/14 11:44:29;;;;;;;14.18;6.45;;;24.10;56.10;;;;;;4821451;29;20049;-88
2023/10/14 11:46:59;;;;;;;15.07;5.80;;;24.00;56.30;;;;;;4818939;29;20057;-88
2023/10/14 11:49:30;;;;;;;12.65;6.10;;;24.10;55.80;;;;;;4821794;29;20050;-87
2023/10/14 11:52:00;;;;;;;13.88;5.88;;;24.10;55.10;;;;;;4822055;29;20050;-89
2023/10/14 11:54:27;;;;;;;11.20;6.00;;;24.10;55.50;;;;;;4836056;29;20051;-88
2023/10/14 11:56:54;;;;;;;13.10;6.15;;;24.10;55.20;;;;;;4820676;29;20089;-88
2023/10/14 11:59:21;;;;;;;15.00;6.30;;;24.10;55.10;;;;;;4821877;29;20046;-88
2023/10/14 12:01:49;;;;;;;12.85;6.35;;;24.10;54.60;;;;;;4821794;29;20537;-88
2023/10/14 12:04:16;;;;;;;16.02;5.30;;;24.10;55.40;;;;;;4824332;29;20517;-89
2023/10/14 12:06:44;;;;;;;16.42;5.90;;;24.10;55.20;;;;;;4838758;29;20425;-91
2023/10/14 12:09:11;;;;;;;13.13;5.95;;;24.00;54.80;;;;;;4823421;29;20430;-89
2023/10/14 12:11:44;;;;;;;15.63;5.93;;;23.90;56.30;;;;;;4823476;29;20103;-90
2023/10/14 12:14:15;;;;;;;12.18;5.68;;;23.80;54.80;;;;;;4817019;29;20860;-91
2023/10/14 12:16:42;;;;;;;12.27;5.47;;;23.70;55.40;;;;;;4821673;29;20050;-91
2023/10/14 12:19:11;;;;;;;15.75;5.80;;;23.70;55.50;;;;;;4823484;29;20062;-91
2023/10/14 12:21:41;;;;;;;11.57;5.63;;;23.70;57.00;;;;;;4823994;29;20470;-91
2023/10/14 12:24:10;;;;;;;12.63;5.63;;;23.70;56.40;;;;;;4825845;29;20054;-92
2023/10/14 12:26:47;;;;;;;12.82;5.53;;;23.70;55.70;;;;;;4826847;29;20057;-90
2023/10/14 12:29:14;;;;;;;13.65;5.95;;;23.80;56.10;;;;;;4824494;29;20142;-91
2023/10/14 12:31:45;;;;;;;14.25;5.75;;;23.90;55.90;;;;;;4815372;29;20043;-91
2023/10/14 12:34:14;;;;;;;13.52;5.70;;;23.90;56.30;;;;;;4819236;29;20050;-91
2023/10/14 12:36:43;;;;;;;16.23;5.60;;;23.90;55.50;;;;;;4826611;29;20043;-91
2023/10/14 12:39:19;;;;;;;15.00;4.80;;;24.10;54.40;;;;;;4825927;29;20501;-90
2023/10/14 12:41:49;;;;;;;11.35;5.60;;;24.10;53.10;;;;;;4826210;29;20049;-91
2023/10/14 12:44:18;;;;;;;11.07;4.80;;;24.10;54.50;;;;;;4826445;29;20052;-91
2023/10/14 12:46:47;;;;;;;13.32;5.13;;;24.20;53.00;;;;;;4811152;29;20494;-90
2023/10/14 12:49:18;;;;;;;9.97;5.00;;;24.20;53.10;;;;;;4826116;29;20061;-89
2023/10/14 12:51:46;;;;;;;13.80;5.70;;;24.10;53.10;;;;;;4826617;29;20042;-92
2023/10/14 12:54:17;;;;;;;20.52;11.13;;;24.00;54.20;;;;;;4825959;29;20039;-89
2023/10/14 12:56:45;;;;;;;14.40;5.78;;;24.00;53.70;;;;;;4831612;29;20458;-89
2023/10/14 12:59:15;;;;;;;13.13;4.97;;;23.80;54.20;;;;;;4816735;29;20069;-90
2023/10/14 13:01:46;;;;;;;12.20;5.00;;;23.70;53.80;;;;;;4811385;29;20117;-91
2023/10/14 13:04:16;;;;;;;11.75;4.68;;;23.60;53.80;;;;;;4827827;29;20078;-91
2023/10/14 13:06:44;;;;;;;12.38;5.10;;;23.50;54.40;;;;;;4810984;29;20050;-90
2023/10/14 13:09:12;;;;;;;13.63;4.63;;;23.30;54.10;;;;;;4816513;29;20038;-90
2023/10/14 13:11:43;;;;;;;12.95;4.93;;;23.20;55.50;;;;;;4824466;29;20531;-89
2023/10/14 13:14:25;;;;;;;10.47;4.80;;;23.10;55.20;;;;;;4825607;29;20421;-90
2023/10/14 13:16:58;;;;;;;13.18;5.03;;;23.10;55.50;;;;;;4824624;29;20082;-90
2023/10/14 13:19:32;;;;;;;14.20;5.00;;;23.20;55.20;;;;;;4825651;29;20572;-90
2023/10/14 13:22:02;;;;;;;12.13;4.78;;;23.10;54.30;;;;;;4810747;29;20398;-90
2023/10/14 13:24:31;;;;;;;10.05;4.70;;;23.00;55.10;;;;;;4825739;29;20042;-89
2023/10/14 13:26:59;;;;;;;12.77;4.50;;;22.90;55.00;;;;;;4825746;29;20080;-90
2023/10/14 13:29:26;;;;;;;13.35;4.95;;;22.80;54.90;;;;;;4825024;29;20050;-90
2023/10/14 13:31:53;;;;;;;15.18;5.70;;;22.80;55.80;;;;;;4825930;29;20405;-90
2023/10/14 13:34:20;;;;;;;12.75;5.47;;;22.80;57.00;;;;;;4825296;29;20065;-90
2023/10/14 13:36:47;;;;;;;11.15;4.60;;;22.90;56.90;;;;;;4824555;29;20057;-90
2023/10/14 13:39:25;;;;;;;13.47;6.00;;;22.80;56.40;;;;;;4824182;29;20042;-90
2023/10/14 13:41:53;;;;;;;14.35;5.20;;;22.80;56.00;;;;;;4824216;29;20061;-90
2023/10/14 13:44:21;;;;;;;12.73;5.07;;;22.80;55.80;;;;;;4824291;29;20498;-90
2023/10/14 13:46:48;;;;;;;10.52;4.60;;;22.70;56.30;;;;;;4823101;29;20051;-89
2023/10/14 13:49:23;;;;;;;14.27;5.53;;;22.70;56.30;;;;;;4824942;29;20046;-90
2023/10/14 13:51:52;;;;;;;12.33;5.00;;;22.60;56.80;;;;;;4808632;29;20046;-90
2023/10/14 13:54:22;;;;;;;13.98;5.38;;;22.60;56.50;;;;;;4823788;29;20047;-89
2023/10/14 13:56:49;;;;;;;12.35;6.03;;;22.40;56.10;;;;;;4823709;29;20047;-90
2023/10/14 13:59:21;;;;;;;12.07;5.63;;;22.30;57.00;;;;;;4823907;29;20050;-90
2023/10/14 14:01:49;;;;;;;12.57;5.78;;;22.20;57.40;;;;;;4822868;29;20050;-90
2023/10/14 14:04:17;;;;;;;12.87;5.30;;;22.20;57.20;;;;;;4823607;29;20042;-89
2023/10/14 14:06:45;;;;;;;12.40;5.25;;;22.10;56.80;;;;;;4824192;29;20042;-89
2023/10/14 14:09:14;;;;;;;12.18;4.93;;;22.10;57.60;;;;;;4824392;29;20050;-90